Time;durP1;ratioP1;P1;durP2;ratioP2;P2;SDS_P1;SDS_P2;PMS_P1;PMS_P2;Temp;Humidity;BMP_temperature;BMP_pressure;BME280_temperature;BME280_humidity;BME280_pressure;Samples;Min_cycle;Max_cycle;Signal;HPM_P1;HPM_P2
2024/04/14 00:05:03;;;;;;;5.30;4.95;;;11.60;99.90;;;12.43;92.29;98489.22;11035902;26;20253;-63
2024/04/14 00:10:11;;;;;;;6.25;5.72;;;11.50;99.90;;;12.31;92.61;98484.25;11047119;26;20286;-60
2024/04/14 00:15:17;;;;;;;6.57;5.88;;;11.40;99.90;;;12.28;93.09;98478.94;11037646;26;20259;-58
2024/04/14 00:20:24;;;;;;;6.90;6.20;;;11.40;99.90;;;12.25;93.57;98476.19;11037295;26;20259;-61
2024/04/14 00:25:33;;;;;;;6.28;5.80;;;11.40;99.90;;;12.24;93.95;98471.84;11044068;26;20264;-61
2024/04/14 00:30:38;;;;;;;8.95;6.30;;;11.40;99.90;;;12.20;93.83;98464.78;11044401;26;20307;-58
2024/04/14 00:35:44;;;;;;;7.38;5.65;;;11.30;99.90;;;12.16;93.25;98464.59;11043270;26;20287;-57
2024/04/14 00:40:53;;;;;;;6.57;5.97;;;11.20;99.90;;;12.16;92.47;98456.91;11037276;26;20269;-60
2024/04/14 00:45:59;;;;;;;6.65;6.15;;;11.20;99.90;;;12.05;93.67;98460.50;11036423;26;20249;-59
2024/04/14 00:51:06;;;;;;;6.13;5.47;;;11.10;99.90;;;12.06;93.66;98452.00;11040179;26;20246;-58
2024/04/14 00:56:14;;;;;;;6.13;5.72;;;11.10;99.90;;;11.99;92.82;98455.00;11037431;26;20295;-61
2024/04/14 01:01:22;;;;;;;5.90;5.40;;;11.00;99.90;;;11.89;92.79;98457.78;11041996;26;20392;-60
2024/04/14 01:06:27;;;;;;;6.82;6.10;;;11.00;99.90;;;11.80;93.55;98446.94;11044115;26;20785;-58
2024/04/14 01:11:36;;;;;;;5.93;5.50;;;10.90;99.90;;;11.76;93.69;98450.06;11036765;26;20353;-56
2024/04/14 01:16:41;;;;;;;6.50;5.85;;;10.90;99.90;;;11.75;94.51;98453.44;11039157;26;20264;-61
2024/04/14 01:21:47;;;;;;;6.43;5.82;;;10.90;99.90;;;11.67;94.14;98446.16;11047310;26;20256;-56
2024/04/14 01:26:55;;;;;;;5.60;5.15;;;10.80;99.90;;;11.66;94.00;98441.84;11041708;26;20689;-61
2024/04/14 01:32:00;;;;;;;6.00;5.28;;;10.70;99.90;;;11.61;93.87;98445.78;11041600;26;20645;-63
2024/04/14 01:37:06;;;;;;;5.90;5.50;;;10.70;99.90;;;11.55;93.91;98449.63;11046966;26;20267;-58
2024/04/14 01:42:14;;;;;;;5.95;5.53;;;10.60;99.90;;;11.44;93.96;98446.41;11036256;26;20299;-59
2024/04/14 01:47:21;;;;;;;6.20;5.70;;;10.60;99.90;;;11.35;94.18;98450.94;11041749;26;20260;-57
2024/04/14 01:52:26;;;;;;;5.85;5.45;;;10.40;99.90;;;11.26;94.39;98453.81;11040789;26;20745;-59
2024/04/14 01:57:35;;;;;;;6.43;5.78;;;10.30;99.90;;;11.18;94.96;98448.19;11041517;26;20298;-59
2024/04/14 02:02:41;;;;;;;6.60;6.10;;;10.30;99.90;;;11.11;96.23;98446.03;11030736;26;20257;-63
2024/04/14 02:07:46;;;;;;;6.10;5.70;;;10.20;99.90;;;11.17;95.81;98446.41;11042659;26;20648;-59
2024/04/14 02:12:55;;;;;;;6.65;6.15;;;10.30;99.90;;;11.20;96.18;98436.38;11043927;26;20249;-59
2024/04/14 02:18:00;;;;;;;6.03;5.63;;;10.40;99.90;;;11.21;96.22;98437.25;11042367;26;20253;-60
2024/04/14 02:23:06;;;;;;;6.55;5.38;;;10.30;99.90;;;11.11;95.94;98432.38;11051667;26;20279;-62
2024/04/14 02:28:14;;;;;;;6.43;5.88;;;10.20;99.90;;;11.09;96.09;98432.25;11038952;26;20643;-63
2024/04/14 02:33:21;;;;;;;5.78;5.28;;;10.20;99.90;;;11.07;96.68;98433.81;11046714;26;20303;-60
2024/04/14 02:38:26;;;;;;;6.43;5.82;;;10.20;99.90;;;11.07;96.59;98433.81;11044894;26;20269;-61
2024/04/14 02:43:35;;;;;;;6.32;5.82;;;10.20;99.90;;;11.03;95.03;98439.53;11046241;26;20256;-58
2024/04/14 02:48:41;;;;;;;7.03;6.37;;;10.00;99.90;;;10.70;96.83;98428.91;11041535;26;20273;-61
2024/04/14 02:53:47;;;;;;;6.47;5.97;;;9.90;99.90;;;10.62;97.62;98422.38;11052920;26;20257;-60
2024/04/14 02:58:55;;;;;;;5.65;5.20;;;9.80;99.90;;;10.65;97.76;98427.69;11043301;26;20267;-64
2024/04/14 03:04:00;;;;;;;7.32;6.68;;;9.80;99.90;;;10.85;97.76;98433.25;11045232;26;20626;-61
2024/04/14 03:09:06;;;;;;;6.57;5.83;;;9.90;99.90;;;10.89;95.49;98437.75;11040876;26;20257;-62
2024/04/14 03:14:14;;;;;;;5.83;5.43;;;9.90;99.90;;;10.65;96.05;98437.94;11048773;26;20303;-61
2024/04/14 03:19:20;;;;;;;6.17;5.70;;;9.70;99.90;;;10.57;97.03;98428.88;11047278;26;20296;-63
2024/04/14 03:24:25;;;;;;;5.90;5.40;;;9.70;99.90;;;10.48;97.43;98420.59;11049186;26;20830;-59
2024/04/14 03:29:33;;;;;;;5.93;5.43;;;9.60;99.90;;;10.50;97.44;98421.56;11039874;26;20260;-60
2024/04/14 03:34:39;;;;;;;5.80;5.30;;;9.60;99.90;;;10.38;97.49;98419.97;11040752;26;20261;-61
2024/04/14 03:39:44;;;;;;;6.00;5.53;;;9.60;99.90;;;10.44;97.58;98423.72;11036001;26;20672;-58
2024/04/14 03:44:53;;;;;;;6.37;5.77;;;9.60;99.90;;;10.42;98.24;98417.63;11048175;26;20377;-62
2024/04/14 03:49:58;;;;;;;6.05;5.45;;;9.60;99.90;;;10.42;97.92;98422.75;11046682;26;20251;-59
2024/04/14 03:55:04;;;;;;;6.43;5.83;;;9.50;99.90;;;10.40;97.75;98416.63;11043095;26;20264;-60
2024/04/14 04:00:14;;;;;;;5.73;5.33;;;9.50;99.90;;;10.33;97.73;98417.88;11026771;26;20260;-61
2024/04/14 04:05:19;;;;;;;6.23;5.63;;;9.50;99.90;;;10.28;98.48;98419.25;11024992;26;20299;-60
2024/04/14 04:10:25;;;;;;;6.57;6.07;;;9.40;99.90;;;10.31;98.58;98422.03;11019258;26;20904;-61
2024/04/14 04:15:33;;;;;;;6.70;5.50;;;9.40;99.90;;;10.25;98.80;98425.00;11021776;26;20259;-60
2024/04/14 04:20:39;;;;;;;6.50;5.93;;;9.50;99.90;;;10.24;99.27;98422.34;11020180;26;20350;-61
2024/04/14 04:25:44;;;;;;;6.73;6.17;;;9.40;99.90;;;10.29;99.50;98427.00;11014938;26;20265;-61
2024/04/14 04:30:52;;;;;;;7.40;6.70;;;9.50;99.90;;;10.33;99.29;98429.00;11015289;26;20265;-62
2024/04/14 04:36:00;;;;;;;6.77;6.17;;;9.50;99.90;;;10.34;99.49;98430.78;11020271;26;20292;-60
2024/04/14 04:41:07;;;;;;;6.70;6.10;;;9.50;99.90;;;10.45;99.23;98438.28;11016040;26;20253;-61
2024/04/14 04:46:15;;;;;;;6.50;5.90;;;9.60;99.90;;;10.49;98.18;98427.47;11006259;26;20303;-61
2024/04/14 04:51:21;;;;;;;6.50;5.90;;;9.60;99.90;;;10.54;97.65;98421.00;11006255;26;20252;-62
2024/04/14 04:56:27;;;;;;;7.17;6.50;;;9.60;99.90;;;10.56;97.53;98425.44;11009240;26;20266;-61
2024/04/14 05:01:35;;;;;;;7.23;6.53;;;9.70;99.90;;;10.62;97.68;98421.50;11007957;26;20316;-59
2024/04/14 05:06:41;;;;;;;6.53;5.93;;;9.80;99.90;;;10.75;97.57;98435.16;11013472;26;20264;-62
2024/04/14 05:11:46;;;;;;;6.70;6.00;;;9.90;99.90;;;10.86;96.96;98428.22;11001146;26;20754;-61
2024/04/14 05:16:54;;;;;;;7.03;6.43;;;9.90;99.90;;;10.97;96.18;98423.78;11011576;26;20283;-61
2024/04/14 05:22:00;;;;;;;7.30;6.00;;;10.00;99.90;;;11.02;96.61;98427.53;11005606;26;20315;-63
2024/04/14 05:27:08;;;;;;;7.28;6.57;;;10.10;99.90;;;11.36;95.73;98434.78;11014664;26;20252;-62
2024/04/14 05:32:18;;;;;;;7.30;6.70;;;10.40;99.90;;;11.63;94.00;98433.09;11022777;26;20257;-60
2024/04/14 05:37:24;;;;;;;6.45;5.95;;;10.60;99.90;;;12.04;92.94;98442.44;11033272;26;22441;-59
2024/04/14 05:42:30;;;;;;;6.97;6.38;;;11.00;99.90;;;12.45;90.39;98441.47;11037532;26;20257;-62
2024/04/14 05:47:38;;;;;;;7.20;6.60;;;11.30;99.90;;;13.18;87.70;98447.41;11037095;26;20362;-63
2024/04/14 05:52:43;;;;;;;5.97;5.38;;;11.90;99.90;;;14.03;82.20;98443.53;11022047;26;20674;-62
2024/04/14 05:57:49;;;;;;;6.00;5.40;;;12.80;99.90;;;14.48;80.98;98449.31;11033643;26;20839;-61
2024/04/14 06:02:59;;;;;;;7.07;5.88;;;13.30;99.90;;;15.01;77.13;98448.53;11019995;26;20908;-61
2024/04/14 06:08:05;;;;;;;7.22;6.63;;;13.60;99.90;;;15.08;75.16;98450.63;11010171;26;20295;-64
2024/04/14 06:13:11;;;;;;;7.47;6.78;;;13.60;99.90;;;14.96;76.26;98462.00;11007905;26;20303;-62
2024/04/14 06:18:19;;;;;;;6.75;6.20;;;13.40;99.90;;;14.83;76.64;98453.69;11021764;26;20832;-63
2024/04/14 06:23:24;;;;;;;7.03;6.43;;;13.50;99.90;;;15.18;75.91;98456.22;11010414;26;20704;-63
2024/04/14 06:28:31;;;;;;;8.70;7.97;;;13.60;99.90;;;15.21;75.35;98459.81;11009472;26;20308;-62
2024/04/14 06:33:39;;;;;;;8.48;7.20;;;13.60;99.90;;;15.51;74.79;98456.97;11019707;26;20311;-59
2024/04/14 06:38:45;;;;;;;7.63;6.90;;;14.00;99.90;;;16.10;73.31;98468.28;11012875;26;20296;-59
2024/04/14 06:43:50;;;;;;;7.22;6.53;;;14.50;99.90;;;16.38;71.56;98472.97;11004455;26;20825;-62
2024/04/14 06:48:58;;;;;;;7.22;6.63;;;15.10;99.90;;;17.27;69.68;98466.44;11028593;26;20265;-61
2024/04/14 06:54:04;;;;;;;6.78;6.28;;;15.60;99.90;;;18.07;64.88;98454.94;11027113;26;20887;-60
2024/04/14 06:59:09;;;;;;;7.53;6.93;;;16.60;99.90;;;18.55;63.45;98451.47;11013922;26;20748;-60
2024/04/14 07:04:18;;;;;;;7.18;6.55;;;16.80;99.90;;;18.58;64.51;98455.03;11019388;26;20296;-61
2024/04/14 07:09:24;;;;;;;7.40;6.70;;;16.90;99.90;;;19.07;62.75;98451.56;11036829;26;20264;-58
2024/04/14 07:14:29;;;;;;;6.18;5.57;;;17.50;99.90;;;19.84;59.92;98440.16;11014422;26;20610;-61
2024/04/14 07:19:37;;;;;;;6.15;5.63;;;18.00;99.90;;;20.87;57.06;98442.19;11020572;26;20257;-62
2024/04/14 07:24:43;;;;;;;6.03;5.43;;;18.70;99.90;;;21.45;53.96;98445.38;11032550;26;20315;-57
2024/04/14 07:29:49;;;;;;;5.60;5.10;;;19.20;99.90;;;21.56;53.74;98446.50;11006262;26;20361;-58
2024/04/14 07:34:57;;;;;;;6.60;5.78;;;19.10;99.90;;;21.27;53.93;98439.72;11010591;26;20304;-59
2024/04/14 07:40:02;;;;;;;6.95;5.30;;;19.50;99.90;;;21.65;53.80;98444.97;11008773;26;20256;-61
2024/04/14 07:45:10;;;;;;;6.03;5.43;;;19.80;99.90;;;21.73;53.29;98440.81;11004880;26;20788;-55
2024/04/14 07:50:19;;;;;;;5.63;5.13;;;20.20;99.90;;;22.31;51.61;98423.81;11001262;26;20251;-60
2024/04/14 07:55:24;;;;;;;5.43;5.03;;;20.80;99.90;;;22.36;52.71;98440.44;11009810;26;20299;-57
2024/04/14 08:00:29;;;;;;;5.20;4.75;;;21.20;99.90;;;22.97;50.26;98437.22;11009104;26;20265;-59
2024/04/14 08:05:38;;;;;;;4.25;3.95;;;21.90;97.90;;;23.38;47.91;98428.34;11008619;26;20257;-59
2024/04/14 08:10:45;;;;;;;6.18;3.85;;;22.30;95.80;;;23.72;46.41;98415.81;11013006;26;20264;-59
2024/04/14 08:15:51;;;;;;;3.67;3.38;;;22.60;94.60;;;24.09;46.00;98418.88;11000589;26;20675;-61
2024/04/14 08:21:03;;;;;;;3.95;3.53;;;22.90;93.70;;;24.41;46.60;98426.22;11007939;26;21060;-57
2024/04/14 08:26:09;;;;;;;3.67;3.33;;;23.40;93.70;;;24.60;46.81;98420.38;11009220;26;20735;-56
2024/04/14 08:31:14;;;;;;;3.67;3.13;;;23.30;94.60;;;24.83;45.80;98422.34;11014472;26;20260;-58
2024/04/14 08:36:22;;;;;;;3.30;3.00;;;23.80;93.40;;;25.06;44.94;98415.56;11008019;26;20799;-59
2024/04/14 08:41:28;;;;;;;2.83;2.53;;;24.10;92.20;;;25.07;44.79;98417.34;11004781;26;20253;-60
2024/04/14 08:46:34;;;;;;;3.17;2.70;;;24.10;92.00;;;25.16;43.81;98419.19;11017979;26;20764;-59
2024/04/14 08:51:42;;;;;;;3.10;2.47;;;24.30;91.00;;;25.37;44.35;98415.84;11024022;26;20276;-61
2024/04/14 08:56:50;;;;;;;2.42;2.22;;;24.50;91.20;;;25.46;44.11;98415.03;11017024;26;20252;-60
2024/04/14 09:01:56;;;;;;;3.33;2.53;;;24.60;90.80;;;25.82;43.23;98423.16;11015963;26;20251;-61
2024/04/14 09:07:05;;;;;;;3.55;2.40;;;25.10;89.60;;;26.02;42.63;98414.50;11033297;26;20319;-61
2024/04/14 09:12:14;;;;;;;3.28;2.60;;;25.20;89.10;;;25.46;45.00;98418.50;11009492;26;20969;-62
2024/04/14 09:17:19;;;;;;;3.38;2.30;;;24.80;91.20;;;25.66;45.23;98409.91;11024515;26;20291;-61
2024/04/14 09:22:27;;;;;;;2.83;2.42;;;24.90;91.50;;;25.72;44.48;98404.72;11041753;21;20760;-62
2024/04/14 09:27:33;;;;;;;4.07;2.58;;;24.90;90.90;;;25.75;44.50;98409.97;11086079;26;20247;-63
2024/04/14 09:32:39;;;;;;;2.80;2.60;;;25.00;90.50;;;26.20;42.90;98409.31;11087788;26;20242;-60
2024/04/14 09:37:47;;;;;;;2.83;2.50;;;25.50;89.00;;;25.93;43.76;98407.47;11094277;26;20588;-63
2024/04/14 09:42:57;;;;;;;3.20;2.60;;;25.20;89.60;;;25.93;43.97;98399.63;11083566;26;20366;-62
2024/04/14 09:48:03;;;;;;;3.03;2.70;;;25.30;89.20;;;25.93;43.48;98399.63;11087583;26;20259;-62
2024/04/14 09:53:13;;;;;;;2.60;2.40;;;25.40;88.20;;;26.25;42.49;98399.75;11089770;26;20347;-59
2024/04/14 09:58:19;;;;;;;3.47;2.60;;;25.70;85.80;;;26.19;43.05;98389.25;11085301;26;20294;-62
2024/04/14 10:03:28;;;;;;;2.60;2.40;;;25.50;87.50;;;26.44;40.82;98387.56;11097092;26;20298;-63
2024/04/14 10:08:37;;;;;;;2.80;2.60;;;25.60;83.90;;;26.55;43.35;98390.22;11090453;26;20247;-59
2024/04/14 10:13:53;;;;;;;2.97;2.67;;;25.80;89.20;;;26.31;40.75;98383.16;11103496;26;20302;-62
2024/04/14 10:19:07;;;;;;;2.85;2.63;;;25.50;82.50;;;26.55;40.76;98381.50;11105455;26;20246;-62
2024/04/14 10:24:16;;;;;;;3.33;2.80;;;25.70;83.20;;;26.56;40.68;98375.41;11085111;26;20263;-62
2024/04/14 10:29:23;;;;;;;2.83;2.63;;;25.80;82.30;;;26.74;40.94;98375.41;11088885;26;20251;-63
2024/04/14 10:34:33;;;;;;;3.17;2.78;;;25.90;82.70;;;26.64;40.47;98374.53;11089241;26;20635;-63
2024/04/14 10:39:44;;;;;;;4.15;2.78;;;25.90;82.30;;;26.43;41.67;98366.56;11100457;26;20298;-62
2024/04/14 10:44:49;;;;;;;2.60;2.40;;;25.60;84.70;;;25.90;42.62;98368.19;11108992;26;20311;-62
2024/04/14 10:49:55;;;;;;;2.90;2.70;;;25.10;86.30;;;26.06;42.94;98356.84;11114310;26;20318;-62
2024/04/14 10:55:03;;;;;;;3.08;2.78;;;25.30;87.30;;;25.89;42.93;98347.19;11122501;26;20769;-62
2024/04/14 11:00:11;;;;;;;3.28;2.53;;;25.20;86.80;;;26.09;42.81;98352.50;11119707;26;20840;-61
2024/04/14 11:05:17;;;;;;;3.47;2.80;;;25.40;86.10;;;26.50;41.64;98343.03;11121474;26;20702;-61
2024/04/14 11:10:26;;;;;;;3.30;3.00;;;25.70;84.60;;;26.48;41.15;98336.00;11125457;26;20319;-61
2024/04/14 11:15:31;;;;;;;3.38;3.10;;;25.60;83.60;;;26.14;42.30;98324.56;11119797;26;20259;-62
2024/04/14 11:20:37;;;;;;;3.58;2.75;;;25.50;84.60;;;25.91;41.84;98328.00;11124126;26;20662;-61
2024/04/14 11:25:45;;;;;;;3.70;2.80;;;25.20;83.90;;;25.93;43.61;98328.91;11124378;26;20243;-62
2024/04/14 11:30:51;;;;;;;4.40;3.33;;;25.20;87.50;;;26.02;42.18;98313.19;11123806;26;20304;-62
2024/04/14 11:36:00;;;;;;;3.10;2.90;;;25.20;86.10;;;25.87;43.64;98314.88;11124598;26;20353;-61
2024/04/14 11:41:09;;;;;;;3.05;2.85;;;25.10;88.30;;;26.10;45.07;98318.47;11118578;26;20251;-61
2024/04/14 11:46:17;;;;;;;3.38;3.08;;;25.40;90.00;;;25.94;43.77;98307.06;11123497;26;20638;-61
2024/04/14 11:51:22;;;;;;;4.38;2.97;;;25.20;88.30;;;26.15;44.67;98302.72;11123088;26;20646;-61
2024/04/14 11:56:30;;;;;;;2.85;2.65;;;25.40;90.00;;;25.76;44.60;98293.88;11121810;26;20769;-62
2024/04/14 12:01:36;;;;;;;3.60;2.85;;;25.00;90.00;;;25.74;43.59;98298.22;11116884;26;20290;-62
2024/04/14 12:06:41;;;;;;;3.50;3.20;;;24.90;88.60;;;25.76;44.48;98294.75;11120693;26;20972;-62
2024/04/14 12:11:50;;;;;;;3.88;2.92;;;24.90;89.70;;;26.01;45.13;98281.72;11121805;26;20341;-60
2024/04/14 12:16:56;;;;;;;3.25;2.95;;;25.10;90.70;;;26.03;45.10;98275.63;11121855;26;20251;-62
2024/04/14 12:22:03;;;;;;;3.20;2.90;;;25.20;90.80;;;26.18;43.78;98269.56;11121717;26;20298;-61
2024/04/14 12:27:11;;;;;;;3.10;2.65;;;25.40;88.70;;;26.19;43.91;98270.44;11118107;26;20251;-61
2024/04/14 12:32:17;;;;;;;3.45;3.15;;;25.40;89.00;;;26.23;42.56;98261.69;11124608;26;20285;-61
2024/04/14 12:37:22;;;;;;;3.17;2.65;;;25.40;87.00;;;26.12;43.71;98258.19;11105521;26;20293;-61
2024/04/14 12:42:30;;;;;;;3.15;2.85;;;25.20;88.50;;;26.21;43.49;98247.69;11096987;26;20317;-63
2024/04/14 12:47:36;;;;;;;3.08;2.88;;;25.30;88.70;;;25.91;43.62;98244.16;11092055;26;20262;-63
2024/04/14 12:52:41;;;;;;;3.50;3.20;;;25.00;88.60;;;25.93;45.35;98238.94;11104287;26;20335;-62
2024/04/14 12:57:49;;;;;;;3.20;2.90;;;25.30;90.30;;;25.62;43.67;98228.34;11106042;26;20605;-62
2024/04/14 13:02:55;;;;;;;3.20;2.90;;;24.90;88.00;;;25.62;45.96;98226.59;11109022;26;20346;-62
2024/04/14 13:08:01;;;;;;;3.20;2.95;;;24.80;91.60;;;25.69;44.56;98216.16;11101350;26;20302;-62
2024/04/14 13:13:09;;;;;;;3.45;2.90;;;24.90;89.50;;;25.62;45.55;98205.66;11104355;26;20259;-63
2024/04/14 13:18:14;;;;;;;5.28;2.75;;;24.80;90.80;;;25.61;45.39;98205.63;11097502;26;20340;-62
2024/04/14 13:23:21;;;;;;;2.92;2.72;;;24.90;90.50;;;25.29;45.78;98189.84;11106049;26;20297;-62
2024/04/14 13:28:30;;;;;;;3.45;2.72;;;24.60;90.50;;;25.26;46.45;98184.59;11109803;26;20642;-63
2024/04/14 13:33:36;;;;;;;2.92;2.63;;;24.60;91.60;;;25.32;46.07;98184.59;11094994;26;20255;-62
2024/04/14 13:38:42;;;;;;;3.83;2.65;;;24.70;91.00;;;25.51;45.87;98175.09;11092829;26;20289;-61
2024/04/14 13:43:50;;;;;;;2.88;2.67;;;24.70;91.00;;;25.76;43.95;98176.03;11091883;26;20829;-62
2024/04/14 13:48:56;;;;;;;3.25;2.95;;;24.90;89.10;;;25.24;45.19;98163.66;11098963;26;20251;-60
2024/04/14 13:54:03;;;;;;;3.35;2.78;;;24.50;90.20;;;25.24;45.41;98160.16;11098708;26;20255;-59
2024/04/14 13:59:11;;;;;;;3.25;2.80;;;24.50;90.40;;;25.50;45.61;98162.88;11086791;26;20255;-63
2024/04/14 14:04:17;;;;;;;2.63;2.42;;;24.70;91.00;;;25.57;45.49;98152.41;11092651;26;20258;-62
2024/04/14 14:09:23;;;;;;;3.67;2.90;;;24.70;90.80;;;25.87;45.04;98148.13;11094188;26;20640;-62
2024/04/14 14:14:31;;;;;;;3.40;3.00;;;25.00;90.50;;;25.65;44.30;98149.81;11101855;26;20649;-62
2024/04/14 14:19:37;;;;;;;3.75;2.67;;;24.90;89.50;;;25.30;44.40;98140.13;11117425;26;20246;-62
2024/04/14 14:24:43;;;;;;;4.38;2.60;;;24.60;89.20;;;25.19;44.75;98130.50;11116475;26;20864;-62
2024/04/14 14:29:52;;;;;;;3.15;2.85;;;24.40;89.90;;;25.40;45.09;98136.66;11107562;26;20761;-63
2024/04/14 14:40:19;;;;;;;2.55;2.35;;;24.50;88.40;;;25.05;44.25;98120.81;11117033;26;20603;-63
2024/04/14 14:45:27;;;;;;;2.80;2.60;;;24.20;89.10;;;24.81;44.62;98123.31;11111599;26;20341;-61
2024/04/14 14:50:33;;;;;;;2.72;2.22;;;24.10;88.60;;;24.83;44.53;98118.97;11105066;26;20255;-64
2024/04/14 14:55:39;;;;;;;2.70;2.50;;;24.00;88.60;;;24.86;44.06;98111.16;11097957;26;20739;-62
2024/04/14 15:00:47;;;;;;;2.40;2.08;;;23.90;89.00;;;24.72;44.45;98109.38;11104620;26;20730;-63
2024/04/14 15:05:53;;;;;;;2.85;2.30;;;23.90;89.10;;;24.66;43.91;98104.06;11099440;26;20301;-61
2024/04/14 15:10:58;;;;;;;2.78;2.30;;;23.80;88.20;;;24.96;43.75;98097.25;11095401;26;20633;-64
2024/04/14 15:16:08;;;;;;;2.35;2.20;;;24.00;88.80;;;24.88;44.30;98093.72;11111004;26;20306;-63
2024/04/14 15:21:13;;;;;;;3.13;2.40;;;24.00;88.40;;;24.66;44.75;98087.53;11097093;26;20824;-63
2024/04/14 15:26:19;;;;;;;3.25;2.92;;;23.80;88.60;;;24.77;44.19;98090.19;11057027;21;20272;-63
2024/04/14 15:31:27;;;;;;;3.00;2.60;;;23.90;88.30;;;24.59;44.96;98086.63;11030063;26;20252;-62
2024/04/14 15:36:33;;;;;;;3.75;2.65;;;23.80;89.40;;;24.67;45.24;98079.69;11036475;26;20260;-62
2024/04/14 15:41:38;;;;;;;11.30;10.40;;;23.80;89.90;;;24.81;45.04;98071.03;11029344;26;20264;-60
2024/04/14 15:46:46;;;;;;;5.13;4.15;;;23.90;90.50;;;24.85;45.48;98071.06;11020651;26;20291;-63
2024/04/14 15:51:52;;;;;;;3.40;3.10;;;24.00;90.50;;;24.82;44.77;98057.97;11036913;26;20735;-63
2024/04/14 15:56:57;;;;;;;4.88;4.43;;;23.90;90.20;;;24.82;44.99;98047.50;11028677;26;20257;-63
2024/04/14 16:02:06;;;;;;;3.42;2.88;;;23.90;90.20;;;24.79;45.26;98037.03;11027535;26;20295;-62
2024/04/14 16:07:12;;;;;;;2.85;2.40;;;23.80;90.50;;;24.90;45.13;98035.34;11098780;26;20249;-60
2024/04/14 16:12:18;;;;;;;7.80;7.00;;;23.90;90.20;;;24.76;46.19;98023.97;11102845;26;20258;-61
2024/04/14 16:17:26;;;;;;;3.25;2.80;;;23.80;91.40;;;24.63;45.71;98024.78;11099137;26;20259;-63
2024/04/14 16:22:31;;;;;;;2.70;2.50;;;23.70;90.60;;;24.48;45.68;98015.13;11115517;26;22862;-63
2024/04/14 16:27:37;;;;;;;4.15;3.58;;;23.50;91.20;;;24.39;45.98;98010.72;11103007;26;20252;-63
2024/04/14 16:32:45;;;;;;;2.53;2.33;;;23.40;90.80;;;24.35;45.49;97997.59;11107164;26;20260;-62
2024/04/14 16:37:51;;;;;;;4.95;2.58;;;23.30;90.90;;;24.12;46.31;97998.38;11108744;26;20255;-61
2024/04/14 16:42:56;;;;;;;3.13;2.60;;;23.20;91.80;;;24.05;46.73;97994.00;11109522;26;20666;-63
2024/04/14 16:48:05;;;;;;;5.53;2.70;;;23.00;91.80;;;23.99;47.15;97991.34;11108735;26;20729;-62
2024/04/14 16:53:11;;;;;;;4.82;3.20;;;22.90;91.90;;;23.79;48.20;97981.66;11094909;26;20259;-63
2024/04/14 16:58:17;;;;;;;2.38;2.17;;;22.80;93.50;;;23.70;49.49;97976.38;11096002;26;20257;-63
2024/04/14 17:03:25;;;;;;;2.65;2.42;;;22.70;94.30;;;23.50;50.21;97970.09;11105901;26;20255;-63
2024/04/14 17:08:32;;;;;;;3.20;2.90;;;22.50;95.20;;;23.33;51.10;97970.84;11106122;26;20256;-63
2024/04/14 17:13:37;;;;;;;2.75;2.55;;;22.30;96.00;;;23.16;51.86;97965.47;11083525;26;20806;-63
2024/04/14 17:18:45;;;;;;;3.67;2.80;;;22.20;97.40;;;23.02;52.12;97958.38;11099772;26;20896;-62
2024/04/14 17:23:51;;;;;;;3.22;2.70;;;22.00;97.10;;;22.84;53.57;97954.72;11109611;26;20355;-66
2024/04/14 17:28:56;;;;;;;3.15;2.60;;;21.80;97.90;;;22.69;52.93;97955.44;11117100;26;21215;-60
2024/04/14 17:34:06;;;;;;;3.05;2.60;;;21.70;97.70;;;22.56;53.75;97947.47;11109875;26;20255;-61
2024/04/14 17:39:12;;;;;;;3.08;2.78;;;21.50;98.80;;;22.40;54.65;97943.81;11108463;26;20731;-61
2024/04/14 17:44:17;;;;;;;3.80;3.30;;;21.40;99.30;;;22.21;55.18;97938.38;11091230;26;20835;-60
2024/04/14 17:49:25;;;;;;;3.03;2.55;;;21.20;99.90;;;21.96;56.21;97944.09;11105236;26;20293;-63
2024/04/14 17:54:31;;;;;;;3.30;3.00;;;21.00;99.90;;;21.73;57.05;97944.66;11093825;26;20289;-64
2024/04/14 17:59:37;;;;;;;3.40;3.10;;;20.80;99.90;;;21.51;58.89;97946.06;11096665;26;20267;-62
2024/04/14 18:04:45;;;;;;;3.05;2.80;;;20.50;99.90;;;21.25;60.48;97937.81;11092104;26;20259;-63
2024/04/14 18:09:51;;;;;;;3.65;2.72;;;20.20;99.90;;;21.07;62.05;97943.59;11102393;26;20378;-63
2024/04/14 18:14:56;;;;;;;3.72;3.08;;;20.10;99.90;;;20.85;63.56;97926.75;11091102;26;20251;-62
2024/04/14 18:20:05;;;;;;;4.85;3.35;;;19.80;99.90;;;20.61;64.48;97929.78;11087495;26;20312;-61
2024/04/14 18:25:11;;;;;;;3.63;3.22;;;19.50;99.90;;;20.36;65.54;97940.53;11091820;26;20306;-64
2024/04/14 18:30:19;;;;;;;3.67;3.08;;;19.30;99.90;;;20.25;66.39;97938.59;11092633;26;20780;-61
2024/04/14 18:35:27;;;;;;;4.25;3.38;;;19.20;99.90;;;19.94;67.20;97941.38;11095825;26;20390;-63
2024/04/14 18:40:32;;;;;;;3.03;2.83;;;18.90;99.90;;;19.82;67.66;97943.72;11087583;26;20282;-64
2024/04/14 18:45:38;;;;;;;3.38;3.10;;;18.70;99.90;;;19.59;69.28;97944.06;11099582;26;20865;-63
2024/04/14 18:50:46;;;;;;;3.20;2.97;;;18.50;99.90;;;19.45;69.41;97948.03;11093852;26;20414;-64
2024/04/14 18:55:57;;;;;;;3.60;3.30;;;18.40;99.90;;;19.39;71.01;97950.50;11087164;26;20258;-62
2024/04/14 19:01:04;;;;;;;4.28;2.83;;;18.30;99.90;;;19.25;70.34;97942.38;11090496;26;20295;-63
2024/04/14 19:06:12;;;;;;;3.70;3.40;;;18.20;99.90;;;19.09;71.97;97941.16;11097189;26;20307;-65
2024/04/14 19:11:18;;;;;;;3.38;3.17;;;18.10;99.90;;;18.97;72.72;97940.81;11094290;26;20259;-61
2024/04/14 19:16:24;;;;;;;3.95;3.65;;;18.00;99.90;;;18.76;74.37;97943.75;11085541;26;20271;-63
2024/04/14 19:21:33;;;;;;;3.88;3.58;;;17.70;99.90;;;18.56;75.19;97935.41;11091364;26;20306;-63
2024/04/14 19:26:39;;;;;;;3.60;3.30;;;17.50;99.90;;;18.43;75.85;97942.84;11092390;26;20623;-63
2024/04/14 19:31:44;;;;;;;4.28;3.70;;;17.40;99.90;;;18.36;75.85;97930.56;11082594;26;20257;-63
2024/04/14 19:36:54;;;;;;;3.63;3.33;;;17.30;99.90;;;18.30;75.16;97934.72;11089733;26;20263;-62
2024/04/14 19:42:00;;;;;;;4.55;3.55;;;17.30;99.90;;;18.13;76.30;97932.50;11080485;26;20264;-63
2024/04/14 19:47:07;;;;;;;3.92;3.40;;;17.10;99.90;;;17.98;76.72;97917.44;11087308;26;20367;-64
2024/04/14 19:52:15;;;;;;;4.18;3.88;;;16.90;99.90;;;17.79;77.63;97912.56;11091071;26;20260;-63
2024/04/14 19:57:22;;;;;;;4.38;3.97;;;16.70;99.90;;;17.78;77.53;97908.22;11073676;26;20256;-64
2024/04/14 20:02:27;;;;;;;4.57;3.80;;;16.80;99.90;;;17.71;78.45;97903.66;11087082;26;20275;-64
2024/04/14 20:07:36;;;;;;;4.43;4.05;;;16.70;99.90;;;17.59;79.41;97890.38;11085789;26;20337;-62
2024/04/14 20:12:41;;;;;;;4.00;3.70;;;16.60;99.90;;;17.50;79.92;97890.97;11084294;26;20255;-62
2024/04/14 20:17:47;;;;;;;4.20;3.85;;;16.50;99.90;;;17.34;80.45;97893.09;11081518;26;20289;-62
2024/04/14 20:22:55;;;;;;;3.85;3.53;;;16.30;99.90;;;17.24;80.85;97887.59;11086368;26;20375;-63
2024/04/14 20:28:01;;;;;;;3.88;3.47;;;16.30;99.90;;;17.06;81.85;97881.03;11080639;26;20268;-64
2024/04/14 20:33:07;;;;;;;4.10;3.78;;;16.10;99.90;;;16.96;81.48;97873.81;11081012;26;21049;-62
2024/04/14 20:38:15;;;;;;;4.32;3.95;;;16.00;99.90;;;16.71;82.11;97859.22;11086832;26;20271;-63
2024/04/14 20:43:21;;;;;;;4.28;3.85;;;15.80;99.90;;;16.71;82.82;97855.72;11091178;26;20255;-63
2024/04/14 20:48:27;;;;;;;4.97;4.47;;;15.80;99.90;;;16.66;82.73;97851.31;11092768;26;20267;-62
2024/04/14 20:53:35;;;;;;;4.70;4.30;;;15.70;99.90;;;16.53;83.75;97838.81;11077379;26;20250;-65
2024/04/14 20:58:41;;;;;;;4.50;4.10;;;15.60;99.90;;;16.44;84.50;97838.50;11087316;26;20252;-62
2024/04/14 21:03:47;;;;;;;4.47;4.07;;;15.50;99.90;;;16.34;84.92;97826.09;11090129;26;20259;-64
2024/04/14 21:08:55;;;;;;;5.10;4.30;;;15.40;99.90;;;16.26;85.36;97817.25;11086531;26;20751;-63
2024/04/14 21:14:01;;;;;;;4.70;4.30;;;15.30;99.90;;;16.24;85.76;97804.31;11080411;26;20332;-64
2024/04/14 21:19:06;;;;;;;4.05;3.75;;;15.20;99.90;;;16.15;85.64;97804.00;11091682;26;20286;-63
2024/04/14 21:24:15;;;;;;;4.20;3.90;;;15.20;99.90;;;16.14;84.90;97803.13;11079177;26;20302;-63